Thursday, June 21, 2018, 12:14 PM EDT
Back to Local

KMVY, Vineyard Haven Marthas Vin

Location: Vineyard Haven, MA, United States Lat: 41.4
Local Time: 12:14 PM EDT (16:14 GMT) Lon: -70.617
Time Zone: US/Eastern Elev: 68 ft

Show me the last for .
Show Decoded

2018-06-21 11:53 METAR KMVY 211553Z 20005KT 10SM SCT095 21/18 A2979 RMK AO2 SLP087 T02060183 =
2018-06-21 10:53 METAR KMVY 211453Z 00000KT 10SM FEW008 OVC085 19/18 A2979 RMK AO2 RAB09E23
                 SLP088 P0000 60000 T01890178 53001 =
2018-06-21 10:51 METAR KMVY 211451Z 00000KT 10SM FEW008 OVC085 19/18 A2979 RMK AO2 RAB09E23 P0000
                 =
2018-06-21 09:53 METAR KMVY 211353Z 25017KT 10SM CLR 17/16 A2979 =
2018-06-21 08:53 METAR KMVY 211253Z 16005KT 10SM FEW075 BKN095 BKN120 18/17 A2979 RMK AO2
                 RAB1155E10B34E44 SLP087 P0000 T01780167 =
2018-06-21 07:53 METAR KMVY 211153Z 18005KT 10SM FEW070 OVC090 17/16 A2979 RMK AO2 RAE13 SLP087
                 P0000 60003 70003 T01720161 10189 20172 51010 =
2018-06-21 06:53 METAR KMVY 211053Z 22005KT 10SM -RA OVC090 18/17 A2978 RMK AO2 RAE29B49 SLP084
                 P0000 T01780167 =
2018-06-21 05:53 METAR KMVY 210953Z 27008KT 10SM -RA OVC090 19/18 A2977 RMK AO2 SLP080 P0001
                 T01890183 =
2018-06-21 04:53 METAR KMVY 210853Z AUTO 26004KT 10SM -RA BKN100 19/18 A2976 RMK AO2 RAB0755
                 SLP075 P0002 60002 T01890178 55007 =
2018-06-21 03:53 METAR KMVY 210753Z AUTO 23006KT 10SM FEW100 18/17 A2975 RMK AO2 RAB0659E27
                 SLP074 P0000 T01830172 =
2018-06-21 02:53 METAR KMVY 210653Z AUTO 22006KT 10SM OVC100 18/17 A2977 RMK AO2 SLP080 T01830167
                 =
2018-06-21 01:53 METAR KMVY 210553Z AUTO 24005KT 10SM OVC100 18/17 A2978 RMK AO2 SLP083 T01830172
                 10189 20178 58009 =
2018-06-21 00:53 METAR KMVY 210453Z AUTO 22006KT 10SM OVC110 18/17 A2979 RMK AO2 SLP087 T01830172
                 402330083 =
2018-06-20 23:53 METAR KMVY 210353Z AUTO 23007KT 10SM OVC110 18/17 A2980 RMK AO2 SLP090 T01830172
                 =
2018-06-20 22:53 METAR KMVY 210253Z AUTO 22007KT 10SM CLR 18/17 A2981 RMK AO2 SLP092 T01830172
                 50002 =
2018-06-20 21:53 METAR KMVY 210153Z 22007KT 10SM CLR 18/17 A2982 RMK AO2 SLP095 T01830172 =
2018-06-20 20:53 METAR KMVY 210053Z 22009KT 10SM CLR 18/17 A2980 RMK AO2 SLP090 T01830172 =
2018-06-20 19:53 METAR KMVY 202353Z 22010KT 10SM CLR 19/18 A2980 RMK AO2 SLP090 T01890178 10228
                 20189 56012 =
2018-06-20 18:53 METAR KMVY 202253Z 22011KT 10SM CLR 19/18 A2980 RMK AO2 SLP091 T01940178 =
2018-06-20 17:53 METAR KMVY 202153Z 22014G18KT 10SM CLR 20/18 A2981 RMK AO2 SLP095 T02000183 =
2018-06-20 16:53 METAR KMVY 202053Z 21012KT 10SM CLR 20/18 A2984 RMK AO2 SLP103 T02000178 58007 =
2018-06-20 15:53 METAR KMVY 201953Z 21013KT 10SM CLR 21/18 A2984 RMK AO2 SLP106 T02110178 =
2018-06-20 14:53 METAR KMVY 201853Z 21014KT 10SM CLR 22/17 A2985 RMK AO2 SLP108 T02220172 =
2018-06-20 13:53 METAR KMVY 201753Z 21015KT 10SM CLR 22/17 A2986 RMK AO2 SLP110 T02220172 10233
                 20200 58014 =
2018-06-20 12:53 METAR KMVY 201653Z 21010KT 10SM CLR 23/17 A2987 RMK AO2 SLP116 T02280172 =

Support USWX by starting your Amazon purchase here.